createdAt,value
2019-03-04T00:06:57.979Z,98225.20
2019-03-04T00:17:02.939Z,98228.30
2019-03-04T00:27:07.883Z,98218.16
2019-03-04T00:37:12.828Z,98222.56
2019-03-04T00:47:17.776Z,98202.42
2019-03-04T00:57:22.745Z,98196.73
2019-03-04T01:07:27.690Z,98201.00
2019-03-04T01:17:32.643Z,98184.95
2019-03-04T01:27:37.585Z,98172.82
2019-03-04T01:37:42.639Z,98151.78
2019-03-04T01:47:47.697Z,98147.98
2019-03-04T01:57:52.510Z,98137.92
2019-03-04T02:07:57.336Z,98118.30
2019-03-04T02:18:02.167Z,98108.09
2019-03-04T02:28:07.020Z,98102.72
2019-03-04T02:38:11.822Z,98084.52
2019-03-04T02:48:16.636Z,98067.27
2019-03-04T02:58:21.465Z,98062.80
2019-03-04T03:08:26.257Z,98054.16
2019-03-04T03:18:31.070Z,98055.27
2019-03-04T03:28:35.892Z,98054.82
2019-03-04T03:38:40.701Z,98043.99
2019-03-04T03:48:45.518Z,98044.72
2019-03-04T03:58:50.343Z,98042.35
2019-03-04T04:08:55.152Z,98023.22
2019-03-04T04:18:59.975Z,98023.22
2019-03-04T04:29:09.218Z,98018.19
2019-03-04T04:39:14.025Z,98004.73
2019-03-04T04:49:18.841Z,97989.67
2019-03-04T04:59:23.673Z,97971.45
2019-03-04T05:09:28.494Z,97991.11
2019-03-04T05:19:33.335Z,97989.86
2019-03-04T05:29:38.169Z,97986.08
2019-03-04T05:39:42.986Z,97973.97
2019-03-04T05:49:47.815Z,97969.05
2019-03-04T05:59:52.631Z,97988.55
2019-03-04T06:09:57.445Z,97991.06
2019-03-04T06:20:02.279Z,97979.70
2019-03-04T06:30:11.391Z,97974.78
2019-03-04T06:40:18.226Z,97968.41
2019-03-04T06:50:54.076Z,97950.36
2019-03-04T07:01:01.799Z,97925.80
2019-03-04T07:11:06.862Z,97923.52
2019-03-04T07:21:11.665Z,97917.16
2019-03-04T07:31:16.492Z,97915.30
2019-03-04T07:41:21.304Z,97905.61
2019-03-04T07:51:26.241Z,97876.91
2019-03-04T08:01:31.176Z,97888.09
2019-03-04T08:12:07.017Z,97876.36
2019-03-04T08:22:11.873Z,97867.97
2019-03-04T08:32:16.789Z,97820.93
2019-03-04T08:42:21.652Z,97826.30
2019-03-04T08:52:26.467Z,97821.60
2019-03-04T09:02:31.311Z,97791.72
2019-03-04T09:12:36.172Z,97774.58
2019-03-04T09:22:40.973Z,97754.77
2019-03-04T09:32:45.826Z,97711.34
2019-03-04T09:42:51.876Z,97711.34
2019-03-04T09:52:56.692Z,97683.17
2019-03-04T10:03:37.248Z,97684.91
2019-03-04T10:13:44.982Z,97658.20
2019-03-04T10:24:13.736Z,97635.15
2019-03-04T10:34:24.459Z,97622.52
2019-03-04T10:44:29.944Z,97618.20
2019-03-04T10:54:34.699Z,97607.09
2019-03-04T11:04:39.543Z,97604.54
2019-03-04T11:14:44.400Z,97598.33
2019-03-04T11:24:49.221Z,97553.41
2019-03-04T11:34:54.032Z,97513.33
2019-03-04T11:44:58.912Z,97514.04
2019-03-04T11:55:06.534Z,97519.14
2019-03-04T12:05:13.738Z,97516.58
2019-03-04T12:15:21.651Z,97492.70
2019-03-04T12:25:26.591Z,97471.22
2019-03-04T12:35:31.499Z,97477.69
2019-03-04T12:45:36.417Z,97450.73
2019-03-04T12:55:41.353Z,97425.05
2019-03-04T13:05:46.183Z,97416.16
2019-03-04T13:15:51.004Z,97396.73
2019-03-04T13:25:55.812Z,97401.58
2019-03-04T13:36:00.734Z,97372.75
2019-03-04T13:46:05.602Z,97389.30
2019-03-04T13:56:10.426Z,97370.85
2019-03-04T14:06:15.630Z,97364.31
2019-03-04T14:16:20.482Z,97342.16
2019-03-04T14:26:25.320Z,97348.15
2019-03-04T14:36:30.154Z,97324.44
2019-03-04T14:46:34.985Z,97312.67
2019-03-04T14:56:39.790Z,97306.90
2019-03-04T15:06:44.621Z,97266.06
2019-03-04T15:16:50.304Z,97262.31
2019-03-04T15:26:55.111Z,97252.97
2019-03-04T15:36:59.921Z,97237.98
2019-03-04T15:47:05.015Z,97234.84
2019-03-04T15:57:11.415Z,97243.64
2019-03-04T16:07:16.983Z,97248.09
2019-03-04T16:17:21.809Z,97210.25
2019-03-04T16:27:26.637Z,97214.06
2019-03-04T16:37:31.560Z,97205.85
2019-03-04T16:47:36.377Z,97229.41
2019-03-04T16:57:41.207Z,97221.16
2019-03-04T17:07:47.036Z,97225.19
2019-03-04T17:17:55.052Z,97233.80
2019-03-04T17:28:00.014Z,97235.19
2019-03-04T17:38:05.209Z,97231.11
2019-03-04T17:48:10.139Z,97232.42
2019-03-04T17:58:15.464Z,97246.50
2019-03-04T18:08:20.601Z,97252.42
2019-03-04T18:18:25.529Z,97247.69
2019-03-04T18:28:57.580Z,97247.89
2019-03-04T18:39:00.841Z,97231.33
2019-03-04T18:49:07.218Z,97233.77
2019-03-04T18:59:12.192Z,97230.49
2019-03-04T19:09:17.170Z,97251.33
2019-03-04T19:19:22.196Z,97236.64
2019-03-04T19:29:27.174Z,97236.36
2019-03-04T19:39:32.212Z,97243.31
2019-03-04T19:49:37.189Z,97224.30
2019-03-04T19:59:42.169Z,97231.44
2019-03-04T20:09:49.392Z,97231.69
2019-03-04T20:19:54.331Z,97209.98
2019-03-04T20:29:59.138Z,97197.83
2019-03-04T20:40:07.061Z,97206.95
2019-03-04T20:50:23.516Z,97221.59
2019-03-04T21:00:36.651Z,97214.81
2019-03-04T21:10:41.590Z,97228.80
2019-03-04T21:20:46.739Z,97236.42
2019-03-04T21:31:01.790Z,97235.92
2019-03-04T21:41:09.721Z,97244.25
2019-03-04T21:51:44.471Z,97245.31
2019-03-04T22:01:52.180Z,97253.53
2019-03-04T22:11:56.995Z,97258.81
2019-03-04T22:22:01.839Z,97253.85
2019-03-04T22:32:06.775Z,97259.31
2019-03-04T22:42:11.612Z,97276.70
2019-03-04T22:52:16.398Z,97294.19
2019-03-04T23:02:21.734Z,97303.02
2019-03-04T23:12:35.547Z,97334.91
2019-03-04T23:22:40.333Z,97389.53
2019-03-04T23:32:45.188Z,97414.44
2019-03-04T23:42:50.031Z,97447.91
2019-03-04T23:52:54.823Z,97460.98
